Airfield :
LOGIN :

Register | Disclaimer

   EN    FR    IT 

 










Legend :    VFR   Marginal VFR   IFR   Intensive IFR   Very Intensive IFR
Visi :
Ceiling :
>= 8 km
>= 3000ft
5 to 8 km
1000 to 3000 ft
1500m to 5 km
500 to 1000 ft
800 to 1500m
200 to 500 ft
< 800m
< 200 ft
Symbols :   Thunderstorms  Fog  Heavy snow  Heavy precipitations  Wind > 20 kt
SIGMETs :     Misc.  Thunderstorms  Icing  Turbulence  Mountain Waves  Volcanic Ashes






- Airport Elevation : 36 ft


EGXV - RAF Leconfield

CURRENT METAR :
  • 171220Z AUTO 30009KT 9999 // FEW035/// OVC042/// 09/01 Q1013

EXPIRED METARs :
  • 171150Z AUTO 31012KT 9999 -RA FEW034/// OVC046/// 08/01 Q1013
  • 171120Z AUTO 32011KT 9999 // OVC031/// 08/01 Q1013
  • 171050Z AUTO 31012KT 9999 -RA OVC028/// 07/01 Q1013
  • 171020Z AUTO 33012KT 9999 OVC036/// 08/M00 Q1013
  • 170950Z AUTO 30012KT 9999 BKN035/// 09/01 Q1013
  • 170920Z AUTO 29010KT 9999 FEW043/// 08/01 Q1013
  • 170850Z AUTO 31010KT 9999 NCD 08/01 Q1013
  • 170820Z AUTO 30011KT 9999 NCD 07/M00 Q1014
  • 170750Z AUTO 29011KT 9999 NCD 06/00 Q1014

TAF N/A



MET'MAP, your aeronautical weather chart ! - Copyright ORBIFLY December 2007 - Disclaimer

ORBIFLY MET'MAP TEAM :

Programming & Development : Alexandra Zaïnal
Original concept : Baudouin d'Aumeries
Technical & hardware support : Manuel Goepfert
Assistance : Marc-Olivier Méhu




SOURCES & CREDITS :

   NOAA